Humidity-temperature Sensor

Selected Measurement Type: Air Temperature

 
Air Temperature [°C]     6 entries per hour
Showing data from 6/9/2022 (00:00:00 Z) to 6/8/2022 (00:01:00 Z)
Previous Next [ Day | 3-Days | 7-Days ]
First Last
Prev [ Day | 3-Days | 7-Days ] Next
First Last

Start Time:     :
End Time:     :     
Time (in GMT) :00 :50 :40 :30 :20 :10
Previous Next [ Day | 3-Days | 7-Days ]
First Last
Prev [ Day | 3-Days | 7-Days ] Next
First Last


123 => good data
MM => data is determined as missing
-- => data not received/configured
Back to Top Back to Top
6/9/2022 00:00 to 23:10 25.84 26.09 26.05 25.90 25.98 25.90
6/8/2022 23:00 to 22:10 25.88 25.91 26.03 26.03 26.12 26.33
6/8/2022 22:00 to 21:10 26.10 26.09 26.14 26.02 26.06 26.03
6/8/2022 21:00 to 20:10 26.08 26.05 26.01 26.16 26.02 25.95
6/8/2022 20:00 to 19:10 26.10 26.07 26.03 26.04 25.97 26.14
6/8/2022 19:00 to 18:10 26.08 25.87 25.99 25.97 25.83 26.20
6/8/2022 18:00 to 17:10 26.10 25.97 26.02 26.05 25.92 26.00
6/8/2022 17:00 to 16:10 26.04 26.16 25.90 26.14 25.88 25.92
6/8/2022 16:00 to 15:10 25.94 25.95 25.95 25.84 26.03 25.90
6/8/2022 15:00 to 14:10 25.97 25.98 26.10 25.91 25.83 26.00
6/8/2022 14:00 to 13:10 25.87 25.92 25.79 25.85 25.73 25.93
6/8/2022 13:00 to 12:10 25.82 25.97 25.96 25.75 25.71 25.78
6/8/2022 12:00 to 11:10 25.71 25.69 25.74 25.71 25.73 25.69
6/8/2022 11:00 to 10:10 25.80 25.73 25.80 25.84 25.63 25.60
6/8/2022 10:00 to 9:10 25.63 25.78 25.68 25.76 25.84 25.73
6/8/2022 09:00 to 8:10 25.66 25.67 25.66 25.98 25.87 25.81
6/8/2022 08:00 to 7:10 25.79 25.85 25.75 25.83 25.80 25.90
6/8/2022 07:00 to 6:10 25.86 25.76 25.94 25.91 25.95 25.93
6/8/2022 06:00 to 5:10 25.81 25.90 25.96 25.97 26.00 25.96
6/8/2022 05:00 to 4:10 26.04 26.16 26.11 26.02 26.01 25.99
6/8/2022 04:00 to 3:10 26.02 26.19 26.13 26.12 26.06 25.98
6/8/2022 03:00 to 2:10 25.92 26.20 26.29 25.98 25.94 26.11
6/8/2022 02:00 to 1:10 26.01 25.95 26.26 26.09 26.01 26.31
6/8/2022 01:00 to 0:10 26.00 25.95 26.14 26.20 26.05 26.14